Aérodrome :
LOGIN :

S'inscrire | Disclaimer

   EN    FR    IT 

 










Légende :    VFR   VFR Marginal   IFR   IFR Intensif   IFR Très Intensif
Visi : 
Plafond : 
>= 8 km
>= 3000ft
5 à 8 km
1000 à 3000 ft
1500m à 5 km
500 à 1000 ft
800 à 1500m
200 à 500 ft
< 800m
< 200 ft
Symboles :   Orages  Brouillard  Fortes neiges  Fortes précipitations  Vent > 20 kt
SIGMETs :   Divers  Orages  Givrage  Turbulence  Onde Orograph.  Cendres Volcan.






- Altitude de l'aérodrome : 202 ft
- Code IATA : LGW


EGKK - London Gatwick

DERNIER METAR :
  • 031820Z 02012KT 9999 FEW032 17/10 Q1005

METARs EXPIRÉS :
  • 031750Z 01011KT 9999 FEW030 17/10 Q1006
  • 031720Z 02010KT 9999 FEW029 18/10 Q1006
  • 031650Z 03010KT 9999 FEW029 18/10 Q1006
  • 031620Z 02010KT 9999 -RA NSC 18/11 Q1006
  • 031550Z 04010KT CAVOK 18/09 Q1006

TAF TAF EGKK
Valide du 03 à 18h jusqu'au 05 à 00h UTC


031653Z 0318/0424 01008KT 9999 SCT030
PROB40
TEMPO 0318/0324 8000 -RA
PROB30
TEMPO 0318/0324 RA BKN014
TEMPO 0400/0409 8000 -RADZ BKN012
PROB30
TEMPO 0400/0409 RA
PROB30
TEMPO 0416/0424 7000 SHRA



MET'MAP, la Météo Aéronautique d'un coup d'oeil ! - Copyright ORBIFLY Décembre 2007 - Disclaimer

ORBIFLY MET'MAP TEAM :

Programmation & Développement : Alexandra Zaïnal
Sur une idée originale de : Baudouin d'Aumeries
Assistance à la programmation : Marc-Olivier Méhu
Soutien technique & logistique : Manuel Goepfert

Contact : metmap@orbifly.com




SOURCES & CREDITS :

   NOAA